TimeIST,TemperatureF,Dew PointF,Humidity,Sea Level PressureIn,VisibilityMPH,Wind Direction,Wind SpeedMPH,Gust SpeedMPH,PrecipitationIn,Events,Conditions,WindDirDegrees,DateUTC
12:00 AM,84.2,73.4,70,29.50,2.5,East,9.2,-,N/A,,Haze,80,2013-06-15 18:30:00
1:00 AM,84.2,73.4,70,29.50,2.5,ENE,9.2,-,N/A,,Haze,70,2013-06-15 19:30:00
2:00 AM,82.4,73.4,74,29.47,2.5,East,9.2,-,N/A,,Haze,80,2013-06-15 20:30:00
2:30 AM,84,73,63,29.40,2,East,9.2,,,,Haze,90,2013-06-15 21:00:00
3:00 AM,82.4,73.4,74,29.47,2.5,East,9.2,-,N/A,,Haze,100,2013-06-15 21:30:00
4:00 AM,82.4,73.4,74,29.47,2.5,East,9.2,-,N/A,,Haze,90,2013-06-15 22:30:00
5:00 AM,82.4,73.4,74,29.47,2.5,ENE,4.6,-,N/A,,Haze,60,2013-06-15 23:30:00
5:30 AM,81,75,77,29.39,2,ENE,6.9,,,,Haze,70,2013-06-16 00:00:00
6:00 AM,80.6,73.4,79,29.47,2.5,East,4.6,-,N/A,,Haze,80,2013-06-16 00:30:00
7:00 AM,82.4,75.2,79,29.47,2.5,East,11.5,-,N/A,,Haze,80,2013-06-16 01:30:00
8:00 AM,84.2,75.2,74,29.50,2.5,ENE,10.4,-,N/A,,Haze,70,2013-06-16 02:30:00
8:30 AM,83,75,70,29.45,2,East,12.7,,,,Haze,90,2013-06-16 03:00:00
9:00 AM,84.2,75.2,74,29.47,2.5,ENE,126.6,-,N/A,,Haze,70,2013-06-16 03:30:00
10:00 AM,86.0,73.4,66,29.47,2.5,East,11.5,-,N/A,,Haze,80,2013-06-16 04:30:00
11:00 AM,87.8,73.4,62,29.47,2.5,East,9.2,-,N/A,,Haze,80,2013-06-16 05:30:00
11:30 AM,87,75,60,29.44,2,East,12.7,,,,Haze,90,2013-06-16 06:00:00
12:00 PM,89.6,75.2,62,29.47,2.5,ENE,10.4,-,N/A,,Haze,70,2013-06-16 06:30:00
1:00 PM,87.8,75.2,66,29.44,2.5,East,11.5,-,N/A,,Haze,80,2013-06-16 07:30:00
1:30 PM,87.8,75.2,66,29.44,2.5,ENE,9.2,-,N/A,,Haze,70,2013-06-16 08:00:00
2:00 PM,89.6,75.2,62,29.42,2.5,ENE,8.1,-,N/A,,Haze,70,2013-06-16 08:30:00
2:30 PM,91,74,48,29.34,2,NE,6.9,,,,Haze,50,2013-06-16 09:00:00
2:30 PM,91.4,75.2,59,29.42,2.5,ENE,6.9,-,N/A,,Haze,60,2013-06-16 09:00:00
3:00 PM,89.6,73.4,59,29.39,2.5,East,9.2,-,N/A,,Haze,80,2013-06-16 09:30:00
3:30 PM,91.4,71.6,52,29.39,2.5,East,10.4,-,N/A,,Haze,80,2013-06-16 10:00:00
4:00 PM,91.4,73.4,55,29.39,2.5,ENE,11.5,-,N/A,,Haze,60,2013-06-16 10:30:00
4:30 PM,89.6,75.2,62,29.39,2.5,East,13.8,-,N/A,,Haze,80,2013-06-16 11:00:00
5:00 PM,87.8,75.2,66,29.39,2.5,East,13.8,-,N/A,,Haze,90,2013-06-16 11:30:00
5:30 PM,89,75,55,29.31,2,East,13.8,,,,Partly Cloudy,90,2013-06-16 12:00:00
5:30 PM,87.8,73.4,62,29.39,2.5,East,12.7,-,N/A,,Haze,80,2013-06-16 12:00:00
6:00 PM,89.6,73.4,59,29.39,2.5,East,12.7,-,N/A,,Haze,90,2013-06-16 12:30:00
6:30 PM,87.8,75.2,66,29.39,2.5,East,12.7,-,N/A,,Haze,90,2013-06-16 13:00:00
8:00 PM,82.4,75.2,79,29.42,1.9,ENE,8.1,-,N/A,,Haze,70,2013-06-16 14:30:00
8:30 PM,81,77,83,29.36,1,East,6.9,,,,Haze,90,2013-06-16 15:00:00
9:00 PM,82.4,77.0,84,29.42,1.9,East,6.9,-,N/A,,Haze,90,2013-06-16 15:30:00
10:00 PM,82.4,77.0,84,29.44,1.9,East,10.4,-,N/A,,Haze,100,2013-06-16 16:30:00
11:00 PM,82.4,75.2,79,29.44,1.9,East,10.4,-,N/A,,Haze,100,2013-06-16 17:30:00
11:30 PM,81,76,81,29.38,1,East,6.9,,,,Haze,90,2013-06-16 18:00:00